South Shaftsbury, Vermont
Current Conditions -  °F | °C
As of 6:11 PM on Wednesday 22 Oct 2014 (Local Time) from KDDH Reporting Station
Overcast Overcast  
Wind Chill: 45°   Ceiling: 2900
Heat Index: 48°   Visibility: 10mi
Dew Point: 45°   Wind: 7mph
Humidity: 89%   Direction: 340°NNW
Pressure: 29.98"   Gusts: NA
Location:  42.9815°N, 73.2071°W
Report Text: KDDH 222211Z AUTO 34006KT 10SM FEW011 BKN029 OVC033 09/07 A2998 RMK AO2 T00890072
Loading
Personal Weather Stations






























Interactive Weather Map
Tropical Storm Tracking
New forecast layout! Learn more

10-Day Weather Forecast

Advertisements
Track Severe Weather on mobile